Time;durP1;ratioP1;P1;durP2;ratioP2;P2;SDS_P1;SDS_P2;PMS_P1;PMS_P2;Temp;Humidity;BMP_temperature;BMP_pressure;BME280_temperature;BME280_humidity;BME280_pressure;Samples;Min_cycle;Max_cycle;Signal;HPM_P1;HPM_P2
2022/01/10 00:02:11;;;;;;;5.10;2.97;;;;;;;;;;5071272;28;20458;-73
2022/01/10 00:04:40;;;;;;;6.57;4.10;;;;;;;;;;5071125;28;20447;-74
2022/01/10 00:07:07;;;;;;;5.33;4.00;;;;;;;;;;5071233;28;20449;-74
2022/01/10 00:09:34;;;;;;;5.33;3.37;;;;;;;;;;5071341;28;20528;-74
2022/01/10 00:12:01;;;;;;;4.00;3.50;;;;;;;;;;5071893;28;20452;-74
2022/01/10 00:14:28;;;;;;;3.83;3.43;;;;;;;;;;5071798;28;20952;-73
2022/01/10 00:16:56;;;;;;;5.63;3.70;;;;;;;;;;5073271;28;20484;-74
2022/01/10 00:19:23;;;;;;;4.80;3.03;;;;;;;;;;5076507;28;20717;-74
2022/01/10 00:21:52;;;;;;;5.40;3.43;;;;;;;;;;5071907;28;20856;-74
2022/01/10 00:24:19;;;;;;;6.00;4.20;;;;;;;;;;5070983;28;20541;-74
2022/01/10 00:26:46;;;;;;;5.50;3.83;;;;;;;;;;5070861;28;20954;-74
2022/01/10 00:29:13;;;;;;;5.73;3.40;;;;;;;;;;5070625;28;20445;-73
2022/01/10 00:31:40;;;;;;;6.93;3.47;;;;;;;;;;5071817;28;20819;-73
2022/01/10 00:34:09;;;;;;;5.80;3.73;;;;;;;;;;5070199;28;21036;-73
2022/01/10 00:36:37;;;;;;;6.23;3.43;;;;;;;;;;5070896;28;20564;-73
2022/01/10 00:39:05;;;;;;;9.03;5.23;;;;;;;;;;5070354;28;20568;-72
2022/01/10 00:41:33;;;;;;;5.33;4.03;;;;;;;;;;5070878;28;20507;-73
2022/01/10 00:44:01;;;;;;;7.83;4.40;;;;;;;;;;5070960;28;20449;-74
2022/01/10 00:46:28;;;;;;;5.23;4.13;;;;;;;;;;5071027;28;20525;-74
2022/01/10 00:48:56;;;;;;;8.03;4.00;;;;;;;;;;5071018;28;20446;-74
2022/01/10 00:51:23;;;;;;;4.33;3.87;;;;;;;;;;5070370;28;20832;-71
2022/01/10 00:53:52;;;;;;;5.40;4.60;;;;;;;;;;5070926;28;20480;-75
2022/01/10 00:56:21;;;;;;;6.70;3.60;;;;;;;;;;5069913;28;20487;-74
2022/01/10 00:58:48;;;;;;;7.03;3.83;;;;;;;;;;5070912;28;20445;-73
2022/01/10 01:01:15;;;;;;;4.90;3.20;;;;;;;;;;5070146;28;20969;-74
2022/01/10 01:03:43;;;;;;;3.87;3.40;;;;;;;;;;5070938;28;20445;-73
2022/01/10 01:06:12;;;;;;;7.00;4.00;;;;;;;;;;5069373;28;20463;-73
2022/01/10 01:08:39;;;;;;;6.43;4.57;;;;;;;;;;5071918;28;20499;-73
2022/01/10 01:13:55;;;;;;;5.60;4.07;;;;;;;;;;5071267;28;20815;-74
2022/01/10 01:16:42;;;;;;;7.17;3.83;;;;;;;;;;5065165;28;20476;-74
2022/01/10 01:24:48;;;;;;;6.87;4.20;;;;;;;;;;5060006;28;20429;-73
2022/01/10 01:27:16;;;;;;;4.77;3.83;;;;;;;;;;5069849;28;20544;-73
2022/01/10 01:29:44;;;;;;;7.73;3.53;;;;;;;;;;5070616;28;20535;-72
2022/01/10 01:32:11;;;;;;;3.70;2.97;;;;;;;;;;5070247;28;20465;-72
2022/01/10 01:34:38;;;;;;;6.10;4.40;;;;;;;;;;5070018;28;20452;-73
2022/01/10 01:37:08;;;;;;;5.37;4.00;;;;;;;;;;5069981;28;20568;-72
2022/01/10 01:39:36;;;;;;;6.70;3.90;;;;;;;;;;5070772;28;20445;-72
2022/01/10 01:42:16;;;;;;;5.67;4.33;;;;;;;;;;5070686;28;20449;-72
2022/01/10 01:44:48;;;;;;;5.20;3.50;;;;;;;;;;5069909;28;20450;-73
2022/01/10 01:47:16;;;;;;;6.50;3.80;;;;;;;;;;5056503;28;20454;-73
2022/01/10 01:49:43;;;;;;;6.93;4.57;;;;;;;;;;5070079;28;21284;-73
2022/01/10 01:52:10;;;;;;;5.83;3.60;;;;;;;;;;5069791;28;20472;-73
2022/01/10 01:54:37;;;;;;;3.83;3.23;;;;;;;;;;5069958;28;20541;-72
2022/01/10 01:57:06;;;;;;;6.13;3.73;;;;;;;;;;5071260;28;20477;-72
2022/01/10 01:59:35;;;;;;;8.97;3.60;;;;;;;;;;5073535;28;20945;-72
2022/01/10 02:02:03;;;;;;;8.17;3.97;;;;;;;;;;5073977;28;20467;-73
2022/01/10 02:04:31;;;;;;;6.83;3.77;;;;;;;;;;5073341;28;20541;-73
2022/01/10 02:06:58;;;;;;;4.83;3.00;;;;;;;;;;5074146;28;20453;-73
2022/01/10 02:09:25;;;;;;;5.43;3.27;;;;;;;;;;5074452;28;20457;-72
2022/01/10 02:11:52;;;;;;;7.70;3.87;;;;;;;;;;5084088;28;20928;-73
2022/01/10 02:14:19;;;;;;;4.67;3.50;;;;;;;;;;5089121;28;20891;-71
2022/01/10 02:16:54;;;;;;;5.90;3.23;;;;;;;;;;5089506;28;20568;-72
2022/01/10 02:19:22;;;;;;;3.30;2.40;;;;;;;;;;5078991;28;20448;-73
2022/01/10 02:21:51;;;;;;;6.23;3.50;;;;;;;;;;5076314;28;20538;-73
2022/01/10 02:24:18;;;;;;;7.50;3.17;;;;;;;;;;5073299;28;20454;-72
2022/01/10 02:26:48;;;;;;;4.00;3.20;;;;;;;;;;5073611;28;21020;-73
2022/01/10 02:29:15;;;;;;;4.20;3.17;;;;;;;;;;5073195;28;20443;-72
2022/01/10 02:31:42;;;;;;;6.13;3.67;;;;;;;;;;5073588;28;20532;-72
2022/01/10 02:34:10;;;;;;;6.73;3.77;;;;;;;;;;5072402;28;20475;-73
2022/01/10 02:36:37;;;;;;;5.47;2.70;;;;;;;;;;5072719;28;20527;-70
2022/01/10 02:39:09;;;;;;;4.67;3.30;;;;;;;;;;5071818;28;20460;-72
2022/01/10 02:41:37;;;;;;;5.33;2.90;;;;;;;;;;5073547;28;20444;-72
2022/01/10 02:44:06;;;;;;;8.97;3.30;;;;;;;;;;5060509;28;20538;-72
2022/01/10 02:46:35;;;;;;;6.03;3.47;;;;;;;;;;5073131;28;20464;-72
2022/01/10 02:49:02;;;;;;;4.10;3.23;;;;;;;;;;5061922;28;20461;-72
2022/01/10 02:51:29;;;;;;;6.60;3.00;;;;;;;;;;5072665;28;20603;-72
2022/01/10 02:53:57;;;;;;;4.50;3.27;;;;;;;;;;5073375;28;20849;-72
2022/01/10 02:56:25;;;;;;;5.33;3.27;;;;;;;;;;5071445;28;20491;-72
2022/01/10 02:58:52;;;;;;;6.03;3.53;;;;;;;;;;5073211;28;20539;-72
2022/01/10 03:01:19;;;;;;;8.87;4.23;;;;;;;;;;5072211;28;20450;-73
2022/01/10 03:03:46;;;;;;;5.53;3.30;;;;;;;;;;5072649;28;20813;-73
2022/01/10 03:06:14;;;;;;;5.80;3.60;;;;;;;;;;5071135;28;20460;-72
2022/01/10 03:08:41;;;;;;;7.07;5.03;;;;;;;;;;5071240;28;20449;-72
2022/01/10 03:11:08;;;;;;;4.90;3.53;;;;;;;;;;5072359;28;20440;-73
2022/01/10 03:13:36;;;;;;;5.33;3.47;;;;;;;;;;5072336;28;20452;-72
2022/01/10 03:16:04;;;;;;;5.20;3.73;;;;;;;;;;5071850;28;20553;-69
2022/01/10 03:18:31;;;;;;;8.33;3.40;;;;;;;;;;5072996;28;20449;-72
2022/01/10 03:20:58;;;;;;;3.80;2.93;;;;;;;;;;5072141;28;20456;-73
2022/01/10 03:23:25;;;;;;;6.63;3.70;;;;;;;;;;5071427;28;20483;-72
2022/01/10 03:25:52;;;;;;;13.83;3.20;;;;;;;;;;5072067;28;20452;-72
2022/01/10 03:28:20;;;;;;;5.40;3.10;;;;;;;;;;5071645;28;20446;-72
2022/01/10 03:30:49;;;;;;;5.80;3.57;;;;;;;;;;5072254;28;20444;-72
2022/01/10 03:33:16;;;;;;;3.37;2.57;;;;;;;;;;5071454;28;20445;-72
2022/01/10 03:35:43;;;;;;;7.17;3.23;;;;;;;;;;5071679;28;20467;-72
2022/01/10 03:38:10;;;;;;;4.60;2.63;;;;;;;;;;5071279;28;20474;-72
2022/01/10 03:40:37;;;;;;;5.20;3.00;;;;;;;;;;5072019;28;20456;-72
2022/01/10 03:43:05;;;;;;;3.90;2.83;;;;;;;;;;5071312;28;20452;-71
2022/01/10 03:45:33;;;;;;;3.23;2.60;;;;;;;;;;5059056;28;20448;-72
2022/01/10 03:48:02;;;;;;;3.20;2.43;;;;;;;;;;5072086;28;20461;-72
2022/01/10 03:50:29;;;;;;;6.13;3.53;;;;;;;;;;5071141;28;20455;-72
2022/01/10 03:52:56;;;;;;;5.40;2.90;;;;;;;;;;5071840;28;20985;-72
2022/01/10 03:55:23;;;;;;;9.47;3.07;;;;;;;;;;5070443;28;20940;-71
2022/01/10 03:57:50;;;;;;;6.00;3.50;;;;;;;;;;5071626;28;20486;-71
2022/01/10 04:00:18;;;;;;;5.30;3.40;;;;;;;;;;5071208;28;20448;-72
2022/01/10 04:02:52;;;;;;;4.60;3.40;;;;;;;;;;5071486;28;20531;-72
2022/01/10 04:05:20;;;;;;;5.63;2.73;;;;;;;;;;5069744;28;20949;-72
2022/01/10 04:07:48;;;;;;;4.10;2.73;;;;;;;;;;5071712;28;20476;-72
2022/01/10 04:10:15;;;;;;;8.93;2.87;;;;;;;;;;5071326;28;20475;-72
2022/01/10 04:12:42;;;;;;;4.10;3.50;;;;;;;;;;5071537;28;20468;-72
2022/01/10 04:15:09;;;;;;;7.27;3.33;;;;;;;;;;5070757;28;20440;-72
2022/01/10 04:17:37;;;;;;;5.33;2.80;;;;;;;;;;5070739;28;20523;-72
2022/01/10 04:20:05;;;;;;;4.40;2.67;;;;;;;;;;5070740;28;20533;-71
2022/01/10 04:22:33;;;;;;;4.50;2.93;;;;;;;;;;5070975;28;20963;-71
2022/01/10 04:25:01;;;;;;;6.90;3.63;;;;;;;;;;5071070;28;20449;-72
2022/01/10 04:27:31;;;;;;;5.10;3.10;;;;;;;;;;5071361;28;20453;-72
2022/01/10 04:29:59;;;;;;;4.97;2.90;;;;;;;;;;5076459;28;20437;-72
2022/01/10 04:32:29;;;;;;;5.10;3.37;;;;;;;;;;5076522;28;20448;-71
2022/01/10 04:34:57;;;;;;;7.63;2.90;;;;;;;;;;5076951;28;20524;-72
2022/01/10 04:37:24;;;;;;;4.47;3.17;;;;;;;;;;5070501;28;20495;-71
2022/01/10 04:39:53;;;;;;;4.57;2.63;;;;;;;;;;5071316;28;20455;-72
2022/01/10 04:42:20;;;;;;;8.83;3.00;;;;;;;;;;5070729;28;20478;-72
2022/01/10 04:44:49;;;;;;;6.20;3.10;;;;;;;;;;5070896;28;20475;-73
2022/01/10 04:47:16;;;;;;;7.80;4.37;;;;;;;;;;5070074;28;20506;-73
2022/01/10 04:50:03;;;;;;;8.90;4.60;;;;;;;;;;5070639;28;20536;-73
2022/01/10 04:52:31;;;;;;;6.30;4.30;;;;;;;;;;5071172;28;20489;-72
2022/01/10 04:55:00;;;;;;;13.03;4.63;;;;;;;;;;5071077;28;20536;-71
2022/01/10 04:57:27;;;;;;;5.70;4.67;;;;;;;;;;5070847;28;20509;-72
2022/01/10 04:59:54;;;;;;;8.57;3.90;;;;;;;;;;5084526;28;20441;-73
2022/01/10 05:02:21;;;;;;;8.30;4.83;;;;;;;;;;5088510;28;20469;-72
2022/01/10 05:04:49;;;;;;;6.60;4.30;;;;;;;;;;5073531;28;20444;-71
2022/01/10 05:07:16;;;;;;;10.30;4.70;;;;;;;;;;5071055;28;20456;-71
2022/01/10 05:09:43;;;;;;;6.50;5.17;;;;;;;;;;5071103;28;20446;-71
2022/01/10 05:12:12;;;;;;;6.33;4.37;;;;;;;;;;5070714;28;20460;-71
2022/01/10 05:14:39;;;;;;;7.93;4.80;;;;;;;;;;5070702;28;20445;-72
2022/01/10 05:17:07;;;;;;;11.13;6.17;;;;;;;;;;5070235;28;20569;-70
2022/01/10 05:19:34;;;;;;;11.90;5.43;;;;;;;;;;5070804;28;20953;-70
2022/01/10 05:22:01;;;;;;;11.23;4.93;;;;;;;;;;5070686;28;20462;-71
2022/01/10 05:24:28;;;;;;;7.83;5.50;;;;;;;;;;5070939;28;20453;-72
2022/01/10 05:26:56;;;;;;;16.13;5.90;;;;;;;;;;5070661;28;20445;-70
2022/01/10 05:29:24;;;;;;;6.07;4.50;;;;;;;;;;5070471;28;21041;-71
2022/01/10 05:31:51;;;;;;;7.97;5.30;;;;;;;;;;5072062;28;20484;-71
2022/01/10 05:34:19;;;;;;;5.77;4.30;;;;;;;;;;5073805;28;20536;-70
2022/01/10 05:36:46;;;;;;;7.20;5.30;;;;;;;;;;5074319;28;20441;-75
2022/01/10 05:39:13;;;;;;;5.40;4.10;;;;;;;;;;5074160;28;20453;-73
2022/01/10 05:41:40;;;;;;;4.77;3.70;;;;;;;;;;5074728;28;20446;-78
2022/01/10 05:44:07;;;;;;;4.97;2.93;;;;;;;;;;5073841;28;20449;-85
2022/01/10 05:46:38;;;;;;;10.30;3.67;;;;;;;;;;5072986;28;20458;-67
2022/01/10 05:49:07;;;;;;;5.00;3.50;;;;;;;;;;5073857;28;20503;-66
2022/01/10 05:51:36;;;;;;;5.20;3.07;;;;;;;;;;5073868;28;20589;-66
2022/01/10 05:54:04;;;;;;;4.57;3.03;;;;;;;;;;5074122;28;20500;-65
2022/01/10 05:56:32;;;;;;;6.03;3.37;;;;;;;;;;5073601;28;20449;-67
2022/01/10 05:58:59;;;;;;;5.47;3.33;;;;;;;;;;5074213;28;20919;-67
2022/01/10 06:01:27;;;;;;;6.10;3.50;;;;;;;;;;5073191;28;20941;-67
2022/01/10 06:03:56;;;;;;;4.90;3.13;;;;;;;;;;5074141;28;20540;-66
2022/01/10 06:06:23;;;;;;;5.80;3.07;;;;;;;;;;5072724;28;21272;-67
2022/01/10 06:08:50;;;;;;;5.20;3.20;;;;;;;;;;5073903;28;20464;-67
2022/01/10 06:11:17;;;;;;;5.17;3.93;;;;;;;;;;5073004;28;20445;-68
2022/01/10 06:13:44;;;;;;;9.20;3.60;;;;;;;;;;5073680;28;20599;-66
2022/01/10 06:16:13;;;;;;;7.17;4.93;;;;;;;;;;5072828;28;20448;-69
2022/01/10 06:18:40;;;;;;;7.97;4.97;;;;;;;;;;5073703;28;20489;-66
2022/01/10 06:21:09;;;;;;;14.00;5.63;;;;;;;;;;5072858;28;20463;-66
2022/01/10 06:23:36;;;;;;;9.93;6.47;;;;;;;;;;5073611;28;20881;-68
2022/01/10 06:26:03;;;;;;;8.37;6.37;;;;;;;;;;5073285;28;20449;-65
2022/01/10 06:28:31;;;;;;;10.53;6.00;;;;;;;;;;5073594;28;20450;-66
2022/01/10 06:30:58;;;;;;;8.93;5.97;;;;;;;;;;5073573;28;20449;-67
2022/01/10 06:33:25;;;;;;;9.80;6.37;;;;;;;;;;5072527;28;20541;-66
2022/01/10 06:35:52;;;;;;;12.97;7.00;;;;;;;;;;5072935;28;20446;-67
2022/01/10 06:38:21;;;;;;;11.73;6.73;;;;;;;;;;5072525;28;20513;-67
2022/01/10 06:40:48;;;;;;;15.20;7.67;;;;;;;;;;5073067;28;20537;-67
2022/01/10 06:43:15;;;;;;;17.40;7.50;;;;;;;;;;5072503;28;20451;-67
2022/01/10 06:45:42;;;;;;;10.57;6.70;;;;;;;;;;5072899;28;20456;-67
2022/01/10 06:48:10;;;;;;;14.77;7.07;;;;;;;;;;5072575;28;20449;-67
2022/01/10 06:50:38;;;;;;;12.37;7.13;;;;;;;;;;5072817;28;20555;-66
2022/01/10 06:53:06;;;;;;;12.90;6.67;;;;;;;;;;5071988;28;20827;-66
2022/01/10 06:55:35;;;;;;;14.60;7.00;;;;;;;;;;5072447;28;21020;-65
2022/01/10 06:58:02;;;;;;;10.67;6.63;;;;;;;;;;5073130;28;20487;-66
2022/01/10 07:00:29;;;;;;;12.93;7.43;;;;;;;;;;5073159;28;20532;-66
2022/01/10 07:02:56;;;;;;;13.00;7.30;;;;;;;;;;5072901;28;20943;-67
2022/01/10 07:05:23;;;;;;;11.27;7.20;;;;;;;;;;5071810;28;20811;-66
2022/01/10 07:07:50;;;;;;;16.50;8.33;;;;;;;;;;5072872;28;20453;-67
2022/01/10 07:10:17;;;;;;;15.80;8.30;;;;;;;;;;5072205;28;20450;-67
2022/01/10 07:12:46;;;;;;;12.80;7.77;;;;;;;;;;5072733;28;20456;-67
2022/01/10 07:15:14;;;;;;;15.97;8.73;;;;;;;;;;5071496;28;20535;-67
2022/01/10 07:17:41;;;;;;;16.97;7.43;;;;;;;;;;5072070;28;20488;-67
2022/01/10 07:20:08;;;;;;;14.27;8.00;;;;;;;;;;5071667;28;20452;-67
2022/01/10 07:22:36;;;;;;;12.53;8.20;;;;;;;;;;5072431;28;20540;-66
2022/01/10 07:25:03;;;;;;;19.10;8.70;;;;;;;;;;5072186;28;20456;-66
2022/01/10 07:27:30;;;;;;;13.37;7.67;;;;;;;;;;5072598;28;20453;-67
2022/01/10 07:30:00;;;;;;;18.97;9.27;;;;;;;;;;5072335;28;20804;-66
2022/01/10 07:32:29;;;;;;;15.10;8.47;;;;;;;;;;5071414;28;20965;-66
2022/01/10 07:34:56;;;;;;;12.47;7.33;;;;;;;;;;5071746;28;20949;-66
2022/01/10 07:37:24;;;;;;;12.87;8.30;;;;;;;;;;5071597;28;20461;-67
2022/01/10 07:39:51;;;;;;;17.07;8.77;;;;;;;;;;5072296;28;20457;-67
2022/01/10 07:42:18;;;;;;;15.00;8.37;;;;;;;;;;5072161;28;20524;-70
2022/01/10 07:44:46;;;;;;;16.47;9.00;;;;;;;;;;5074073;28;20463;-67
2022/01/10 07:47:14;;;;;;;12.50;8.10;;;;;;;;;;5074497;28;20545;-66
2022/01/10 07:49:41;;;;;;;12.90;8.60;;;;;;;;;;5071796;28;20459;-67
2022/01/10 07:52:09;;;;;;;14.67;8.87;;;;;;;;;;5071078;28;20831;-67
2022/01/10 07:54:36;;;;;;;18.03;9.10;;;;;;;;;;5070683;28;20532;-68
2022/01/10 07:57:03;;;;;;;10.70;7.43;;;;;;;;;;5071928;28;20753;-65
2022/01/10 07:59:31;;;;;;;10.00;6.53;;;;;;;;;;5071799;28;20577;-67
2022/01/10 08:01:58;;;;;;;12.47;6.80;;;;;;;;;;5071962;28;20460;-67
2022/01/10 08:04:26;;;;;;;8.27;6.30;;;;;;;;;;5070738;28;20532;-67
2022/01/10 08:06:53;;;;;;;14.53;8.13;;;;;;;;;;5071675;28;20453;-66
2022/01/10 08:09:21;;;;;;;10.33;7.30;;;;;;;;;;5071106;28;20460;-67
2022/01/10 08:11:48;;;;;;;14.30;7.90;;;;;;;;;;5071593;28;20467;-67
2022/01/10 08:14:15;;;;;;;13.13;7.50;;;;;;;;;;5070645;28;20820;-67
2022/01/10 08:16:42;;;;;;;13.30;7.80;;;;;;;;;;5071318;28;20457;-67
2022/01/10 08:19:10;;;;;;;12.37;7.10;;;;;;;;;;5070402;28;20558;-67
2022/01/10 08:21:39;;;;;;;15.80;8.17;;;;;;;;;;5071268;28;20464;-67
2022/01/10 08:24:06;;;;;;;14.33;8.57;;;;;;;;;;5070654;28;20481;-67
2022/01/10 08:26:33;;;;;;;12.23;7.47;;;;;;;;;;5070873;28;20483;-67
2022/01/10 08:29:01;;;;;;;11.40;7.10;;;;;;;;;;5071453;28;20449;-67
2022/01/10 08:31:28;;;;;;;11.03;7.07;;;;;;;;;;5070851;28;20533;-67
2022/01/10 08:33:55;;;;;;;11.57;7.03;;;;;;;;;;5071279;28;20454;-66
2022/01/10 08:36:22;;;;;;;19.23;7.43;;;;;;;;;;5070321;28;20814;-67
2022/01/10 08:38:50;;;;;;;10.63;6.80;;;;;;;;;;5070898;28;21014;-67
2022/01/10 08:41:18;;;;;;;14.43;8.03;;;;;;;;;;5070489;28;20460;-67
2022/01/10 08:43:45;;;;;;;11.70;7.77;;;;;;;;;;5070890;28;20458;-67
2022/01/10 08:46:12;;;;;;;14.20;8.37;;;;;;;;;;5070032;28;20537;-67
2022/01/10 08:48:40;;;;;;;13.27;7.47;;;;;;;;;;5071109;28;20445;-67
2022/01/10 08:51:07;;;;;;;14.23;7.13;;;;;;;;;;5070087;28;20876;-67
2022/01/10 08:53:34;;;;;;;14.33;7.00;;;;;;;;;;5071185;28;20564;-67
2022/01/10 08:56:04;;;;;;;11.23;7.47;;;;;;;;;;5070821;28;20450;-67
2022/01/10 08:58:32;;;;;;;12.40;7.37;;;;;;;;;;5071228;28;20483;-67
2022/01/10 09:00:59;;;;;;;13.33;7.97;;;;;;;;;;5070797;28;20441;-67
2022/01/10 09:03:26;;;;;;;14.10;8.20;;;;;;;;;;5070476;28;20445;-69
2022/01/10 09:05:55;;;;;;;9.87;5.73;;;;;;;;;;5071629;28;21027;-68
2022/01/10 09:08:23;;;;;;;12.27;6.97;;;;;;;;;;5074351;28;20430;-67
2022/01/10 09:10:50;;;;;;;17.20;7.47;;;;;;;;;;5075063;28;20445;-67
2022/01/10 09:13:19;;;;;;;14.30;8.57;;;;;;;;;;5074197;28;20437;-67
2022/01/10 09:15:46;;;;;;;10.70;6.60;;;;;;;;;;5074236;28;20985;-69
2022/01/10 09:18:14;;;;;;;14.00;8.43;;;;;;;;;;5074050;28;20472;-67
2022/01/10 09:20:41;;;;;;;12.47;8.50;;;;;;;;;;5074627;28;20829;-67
2022/01/10 09:23:09;;;;;;;10.90;8.10;;;;;;;;;;5074409;28;20853;-67
2022/01/10 09:25:36;;;;;;;14.43;8.80;;;;;;;;;;5073987;28;20963;-67
2022/01/10 09:28:03;;;;;;;25.97;7.53;;;;;;;;;;5074247;28;20510;-66
2022/01/10 09:30:32;;;;;;;13.50;8.37;;;;;;;;;;5074294;28;20964;-67
2022/01/10 09:32:59;;;;;;;12.03;7.50;;;;;;;;;;5074434;28;20442;-67
2022/01/10 09:35:26;;;;;;;11.87;7.90;;;;;;;;;;5073017;28;20941;-67
2022/01/10 09:37:53;;;;;;;15.40;9.43;;;;;;;;;;5074389;28;20452;-67
2022/01/10 09:40:21;;;;;;;20.20;9.67;;;;;;;;;;5073388;28;20445;-68
2022/01/10 09:42:48;;;;;;;29.37;10.00;;;;;;;;;;5074343;28;20828;-68
2022/01/10 09:45:15;;;;;;;17.40;8.37;;;;;;;;;;5073331;28;20449;-67
2022/01/10 09:47:43;;;;;;;11.70;7.80;;;;;;;;;;5074374;28;20452;-67
2022/01/10 09:50:15;;;;;;;11.27;8.40;;;;;;;;;;5073415;28;20448;-67
2022/01/10 09:52:43;;;;;;;23.00;9.53;;;;;;;;;;5073616;28;20484;-67
2022/01/10 09:55:10;;;;;;;17.50;8.30;;;;;;;;;;5073041;28;20449;-68
2022/01/10 09:57:38;;;;;;;14.00;8.30;;;;;;;;;;5074035;28;20441;-67
2022/01/10 10:00:05;;;;;;;16.53;8.47;;;;;;;;;;5073296;28;20630;-67
2022/01/10 10:02:33;;;;;;;16.77;8.50;;;;;;;;;;5073846;28;20446;-69
2022/01/10 10:05:03;;;;;;;12.50;8.53;;;;;;;;;;5060049;28;20452;-68
2022/01/10 10:07:30;;;;;;;12.13;8.03;;;;;;;;;;5074121;28;20449;-67
2022/01/10 10:09:58;;;;;;;18.23;8.80;;;;;;;;;;5073873;28;20449;-67
2022/01/10 10:12:28;;;;;;;24.60;9.10;;;;;;;;;;5073167;28;20448;-67
2022/01/10 10:14:56;;;;;;;15.23;9.07;;;;;;;;;;5073286;28;20437;-67
2022/01/10 10:17:23;;;;;;;16.40;8.30;;;;;;;;;;5072311;28;20772;-67
2022/01/10 10:19:51;;;;;;;18.57;9.43;;;;;;;;;;5073549;28;20579;-67
2022/01/10 10:22:20;;;;;;;21.13;9.23;;;;;;;;;;5072487;28;20453;-68
2022/01/10 10:24:48;;;;;;;13.10;9.10;;;;;;;;;;5073826;28;20452;-68
2022/01/10 10:27:16;;;;;;;13.40;7.57;;;;;;;;;;5073108;28;20544;-68
2022/01/10 10:29:44;;;;;;;19.20;9.43;;;;;;;;;;5073556;28;20475;-69
2022/01/10 10:32:15;;;;;;;18.97;9.20;;;;;;;;;;5073219;28;20798;-68
2022/01/10 10:34:42;;;;;;;16.90;9.53;;;;;;;;;;5073159;28;20507;-68
2022/01/10 10:37:10;;;;;;;18.70;9.63;;;;;;;;;;5072232;28;20448;-67
2022/01/10 10:39:40;;;;;;;16.63;9.83;;;;;;;;;;5072954;28;20777;-67
2022/01/10 10:42:08;;;;;;;19.80;10.27;;;;;;;;;;5072732;28;20473;-67
2022/01/10 10:44:35;;;;;;;15.60;9.10;;;;;;;;;;5072848;28;20443;-67
2022/01/10 10:47:03;;;;;;;13.97;8.00;;;;;;;;;;5073379;28;20442;-67
2022/01/10 10:49:34;;;;;;;18.60;9.93;;;;;;;;;;5073054;28;20951;-67
2022/01/10 10:52:02;;;;;;;13.13;8.77;;;;;;;;;;5072965;28;20603;-67
2022/01/10 10:54:32;;;;;;;13.70;9.30;;;;;;;;;;5073033;28;20496;-67
2022/01/10 10:57:00;;;;;;;13.00;9.20;;;;;;;;;;5060508;28;20534;-67
2022/01/10 10:59:30;;;;;;;24.23;9.60;;;;;;;;;;5072346;28;20499;-67
2022/01/10 11:01:57;;;;;;;13.00;9.63;;;;;;;;;;5072974;28;20441;-67
2022/01/10 11:04:25;;;;;;;10.90;8.20;;;;;;;;;;5071598;28;20441;-67
2022/01/10 11:06:53;;;;;;;13.47;8.47;;;;;;;;;;5072536;28;20906;-67
2022/01/10 11:09:20;;;;;;;12.57;8.60;;;;;;;;;;5071853;28;20543;-67
2022/01/10 11:11:47;;;;;;;13.50;10.80;;;;;;;;;;5072790;28;20524;-67
2022/01/10 11:14:17;;;;;;;16.53;8.83;;;;;;;;;;5071766;28;20452;-67
2022/01/10 11:16:45;;;;;;;13.00;8.87;;;;;;;;;;5072746;28;20446;-67
2022/01/10 11:19:13;;;;;;;13.13;8.30;;;;;;;;;;5071896;28;20481;-67
2022/01/10 11:21:41;;;;;;;17.80;8.57;;;;;;;;;;5072496;28;20479;-67
2022/01/10 11:24:09;;;;;;;15.17;8.57;;;;;;;;;;5071561;28;20437;-68
2022/01/10 11:26:39;;;;;;;14.00;8.57;;;;;;;;;;5072290;28;20444;-68
2022/01/10 11:29:08;;;;;;;13.43;8.20;;;;;;;;;;5070888;28;20450;-67
2022/01/10 11:31:36;;;;;;;12.77;7.93;;;;;;;;;;5072143;28;20444;-67
2022/01/10 11:34:04;;;;;;;12.37;8.53;;;;;;;;;;5071510;28;20444;-65
2022/01/10 11:36:31;;;;;;;16.07;9.50;;;;;;;;;;5072381;28;20448;-66
2022/01/10 11:38:59;;;;;;;12.80;8.70;;;;;;;;;;5072251;28;20477;-67
2022/01/10 11:41:27;;;;;;;16.63;8.53;;;;;;;;;;5071483;28;20955;-66
2022/01/10 11:44:03;;;;;;;11.33;8.90;;;;;;;;;;5058537;28;20456;-66
2022/01/10 11:46:35;;;;;;;18.53;9.40;;;;;;;;;;5072138;28;20456;-67
2022/01/10 11:49:04;;;;;;;9.70;7.53;;;;;;;;;;5061052;28;20461;-67
2022/01/10 11:51:34;;;;;;;12.83;8.87;;;;;;;;;;5070958;28;20449;-67
2022/01/10 11:54:12;;;;;;;16.23;9.43;;;;;;;;;;5071303;28;20434;-67
2022/01/10 11:56:40;;;;;;;12.70;9.00;;;;;;;;;;5071802;28;20452;-67
2022/01/10 11:59:11;;;;;;;12.80;8.37;;;;;;;;;;5071077;28;20508;-67
2022/01/10 12:01:40;;;;;;;13.57;7.80;;;;;;;;;;5071682;28;20442;-67
2022/01/10 12:04:08;;;;;;;12.23;7.80;;;;;;;;;;5070713;28;20894;-66
2022/01/10 12:06:36;;;;;;;11.40;7.40;;;;;;;;;;5071515;28;20552;-67
2022/01/10 12:09:03;;;;;;;11.33;7.70;;;;;;;;;;5071712;28;20808;-67
2022/01/10 12:11:31;;;;;;;9.57;6.60;;;;;;;;;;5071357;28;20459;-67
2022/01/10 12:14:00;;;;;;;14.10;7.67;;;;;;;;;;5071423;28;20524;-67
2022/01/10 12:16:27;;;;;;;14.40;8.87;;;;;;;;;;5070947;28;20453;-66
2022/01/10 12:18:55;;;;;;;15.17;8.10;;;;;;;;;;5071320;28;20525;-67
2022/01/10 12:21:24;;;;;;;12.33;7.43;;;;;;;;;;5070625;28;20540;-67
2022/01/10 12:23:52;;;;;;;12.03;7.13;;;;;;;;;;5070292;28;20457;-67
2022/01/10 12:26:20;;;;;;;12.13;7.23;;;;;;;;;;5070217;28;20785;-67
2022/01/10 12:28:50;;;;;;;21.60;7.67;;;;;;;;;;5070997;28;20933;-67
2022/01/10 12:31:18;;;;;;;12.67;7.47;;;;;;;;;;5070601;28;20540;-66
2022/01/10 12:33:45;;;;;;;8.97;6.57;;;;;;;;;;5070984;28;20445;-66
2022/01/10 12:36:12;;;;;;;15.93;8.20;;;;;;;;;;5070345;28;20952;-66
2022/01/10 12:38:42;;;;;;;13.10;7.60;;;;;;;;;;5071320;28;20528;-66
2022/01/10 12:41:09;;;;;;;12.87;7.90;;;;;;;;;;5070106;28;20473;-66
2022/01/10 12:43:37;;;;;;;11.63;7.90;;;;;;;;;;5070888;28;20485;-67
2022/01/10 12:46:04;;;;;;;12.07;8.03;;;;;;;;;;5070311;28;20534;-65
2022/01/10 12:48:31;;;;;;;10.20;7.57;;;;;;;;;;5071183;28;20445;-67
2022/01/10 12:50:58;;;;;;;14.73;8.97;;;;;;;;;;5071168;28;20552;-67
2022/01/10 12:53:25;;;;;;;12.10;7.10;;;;;;;;;;5070099;28;20473;-66
2022/01/10 12:55:54;;;;;;;12.27;7.87;;;;;;;;;;5070795;28;20453;-67
2022/01/10 12:58:22;;;;;;;11.37;6.83;;;;;;;;;;5070474;28;20445;-67
2022/01/10 13:00:49;;;;;;;12.80;7.83;;;;;;;;;;5070820;28;20488;-66
2022/01/10 13:03:17;;;;;;;14.30;7.17;;;;;;;;;;5070094;28;20485;-66
2022/01/10 13:05:45;;;;;;;13.13;7.17;;;;;;;;;;5070673;28;20456;-67
2022/01/10 13:08:12;;;;;;;14.73;8.37;;;;;;;;;;5056850;28;21020;-67
2022/01/10 13:10:40;;;;;;;12.50;8.40;;;;;;;;;;5070687;28;20538;-66
2022/01/10 13:13:11;;;;;;;12.90;9.13;;;;;;;;;;5070450;28;20865;-68
2022/01/10 13:15:42;;;;;;;12.97;9.80;;;;;;;;;;5070390;28;20449;-67
2022/01/10 13:18:10;;;;;;;14.40;8.90;;;;;;;;;;5071737;28;20445;-67
2022/01/10 13:20:38;;;;;;;15.00;9.17;;;;;;;;;;5070815;28;20497;-67
2022/01/10 13:23:06;;;;;;;9.80;6.50;;;;;;;;;;5070217;28;20475;-67
2022/01/10 13:25:35;;;;;;;11.60;8.80;;;;;;;;;;5070142;28;20957;-67
2022/01/10 13:28:05;;;;;;;10.60;7.60;;;;;;;;;;5071037;28;20453;-67
2022/01/10 13:30:33;;;;;;;11.63;7.67;;;;;;;;;;5070994;28;20557;-67
2022/01/10 13:33:04;;;;;;;19.43;8.87;;;;;;;;;;5070994;28;20445;-67
2022/01/10 13:35:31;;;;;;;20.30;9.63;;;;;;;;;;5070430;28;20441;-67
2022/01/10 13:38:00;;;;;;;15.37;8.73;;;;;;;;;;5070696;28;20453;-67
2022/01/10 13:40:28;;;;;;;15.50;8.63;;;;;;;;;;5069636;28;20487;-67
2022/01/10 13:43:04;;;;;;;15.40;8.57;;;;;;;;;;5070644;28;20468;-66
2022/01/10 13:45:43;;;;;;;13.17;8.37;;;;;;;;;;5069988;28;20449;-67
2022/01/10 13:48:16;;;;;;;12.70;9.77;;;;;;;;;;5069802;28;20441;-67
2022/01/10 13:50:45;;;;;;;12.67;9.10;;;;;;;;;;5070690;28;20458;-67
2022/01/10 13:53:14;;;;;;;17.10;8.40;;;;;;;;;;5071237;28;20481;-67
2022/01/10 13:55:43;;;;;;;17.30;10.30;;;;;;;;;;5073759;28;20494;-67
2022/01/10 13:58:23;;;;;;;17.80;9.53;;;;;;;;;;5073219;28;20921;-67
2022/01/10 14:00:55;;;;;;;15.93;8.50;;;;;;;;;;5073794;28;20487;-67
2022/01/10 14:03:23;;;;;;;13.70;8.90;;;;;;;;;;5073536;28;20510;-67
2022/01/10 14:06:05;;;;;;;13.97;8.40;;;;;;;;;;5073415;28;20445;-67
2022/01/10 14:08:32;;;;;;;12.57;9.23;;;;;;;;;;5074093;28;20437;-67
2022/01/10 14:11:01;;;;;;;12.23;8.67;;;;;;;;;;5073989;28;20488;-67
2022/01/10 14:13:28;;;;;;;17.87;9.53;;;;;;;;;;5074031;28;20492;-67
2022/01/10 14:15:57;;;;;;;13.53;8.27;;;;;;;;;;5073159;28;20516;-66
2022/01/10 14:18:24;;;;;;;14.80;8.70;;;;;;;;;;5072904;28;20449;-66
2022/01/10 14:20:51;;;;;;;16.03;8.90;;;;;;;;;;5073702;28;20596;-67
2022/01/10 14:23:19;;;;;;;15.70;10.00;;;;;;;;;;5072854;28;20544;-68
2022/01/10 14:25:46;;;;;;;13.70;9.03;;;;;;;;;;5073244;28;20467;-67
2022/01/10 14:28:14;;;;;;;17.93;8.70;;;;;;;;;;5072898;28;20581;-67
2022/01/10 14:30:41;;;;;;;14.10;9.20;;;;;;;;;;5073482;28;20459;-67
2022/01/10 14:33:09;;;;;;;16.67;9.27;;;;;;;;;;5073006;28;20457;-67
2022/01/10 14:35:36;;;;;;;16.33;10.70;;;;;;;;;;5073091;28;20532;-67
2022/01/10 14:38:04;;;;;;;13.77;9.67;;;;;;;;;;5072806;28;20532;-65
2022/01/10 14:40:31;;;;;;;15.93;9.67;;;;;;;;;;5073089;28;20568;-67
2022/01/10 14:43:00;;;;;;;13.63;9.07;;;;;;;;;;5073503;28;20455;-67
2022/01/10 14:45:27;;;;;;;13.23;8.10;;;;;;;;;;5071945;28;20456;-67
2022/01/10 14:47:54;;;;;;;15.13;9.20;;;;;;;;;;5073186;28;20817;-67
2022/01/10 14:50:23;;;;;;;11.10;7.03;;;;;;;;;;5072199;28;20964;-67